createdAt,value
2018-06-25T00:04:31.594Z,15.80
2018-06-25T00:06:58.958Z,15.80
2018-06-25T00:09:26.358Z,15.70
2018-06-25T00:11:53.734Z,15.70
2018-06-25T00:14:21.561Z,15.60
2018-06-25T00:16:48.934Z,15.70
2018-06-25T00:19:16.333Z,15.70
2018-06-25T00:21:44.366Z,15.70
2018-06-25T00:24:12.419Z,15.70
2018-06-25T00:26:40.466Z,15.60
2018-06-25T00:29:07.846Z,15.60
2018-06-25T00:31:35.226Z,15.60
2018-06-25T00:36:31.110Z,15.50
2018-06-25T00:38:59.160Z,15.50
2018-06-25T00:41:27.202Z,15.50
2018-06-25T00:43:55.258Z,15.50
2018-06-25T00:46:23.295Z,15.50
2018-06-25T00:48:50.667Z,15.40
2018-06-25T00:51:18.713Z,15.50
2018-06-25T00:53:46.754Z,15.40
2018-06-25T00:56:14.786Z,15.40
2018-06-25T00:58:54.308Z,15.40
2018-06-25T01:01:22.331Z,15.40
2018-06-25T01:03:50.377Z,15.40
2018-06-25T01:08:46.230Z,15.30
2018-06-25T01:11:14.255Z,15.30
2018-06-25T01:13:42.303Z,15.30
2018-06-25T01:16:10.343Z,15.20
2018-06-25T01:18:38.385Z,15.20
2018-06-25T01:21:06.427Z,15.20
2018-06-25T01:23:34.458Z,15.20
2018-06-25T01:26:02.522Z,15.10
2018-06-25T01:28:30.582Z,15.20
2018-06-25T01:30:58.599Z,15.20
2018-06-25T01:33:26.674Z,15.20
2018-06-25T01:35:54.703Z,15.10
2018-06-25T01:38:22.743Z,15.10
2018-06-25T01:40:50.133Z,15.10
2018-06-25T01:43:17.529Z,15.00
2018-06-25T01:45:45.594Z,15.00
2018-06-25T01:48:13.673Z,15.00
2018-06-25T01:50:41.066Z,15.00
2018-06-25T01:53:08.450Z,15.00
2018-06-25T01:55:36.503Z,15.00
2018-06-25T01:58:04.554Z,15.00
2018-06-25T02:03:00.398Z,15.00
2018-06-25T02:05:28.455Z,14.90
2018-06-25T02:07:55.838Z,14.90
2018-06-25T02:10:23.258Z,14.90
2018-06-25T02:12:50.654Z,14.90
2018-06-25T02:17:46.526Z,14.90
2018-06-25T02:20:14.581Z,14.80
2018-06-25T02:22:41.974Z,14.80
2018-06-25T02:25:09.350Z,14.80
2018-06-25T02:27:37.379Z,14.70
2018-06-25T02:30:04.754Z,14.80
2018-06-25T02:32:32.813Z,14.70
2018-06-25T02:35:00.192Z,14.70
2018-06-25T02:37:27.642Z,14.70
2018-06-25T02:39:55.687Z,14.70
2018-06-25T02:42:23.718Z,14.70
2018-06-25T02:44:51.743Z,14.70
2018-06-25T02:47:19.782Z,14.70
2018-06-25T02:49:47.831Z,14.70
2018-06-25T02:52:15.895Z,14.70
2018-06-25T02:54:43.287Z,14.70
2018-06-25T02:57:10.654Z,14.70
2018-06-25T02:59:38.694Z,14.70
2018-06-25T03:04:34.603Z,14.60
2018-06-25T03:07:02.618Z,14.70
2018-06-25T03:09:30.647Z,14.60
2018-06-25T03:11:58.686Z,14.50
2018-06-25T03:14:26.739Z,14.50
2018-06-25T03:19:22.607Z,14.40
2018-06-25T03:21:49.997Z,14.40
2018-06-25T03:24:17.413Z,14.40
2018-06-25T03:26:44.789Z,14.40
2018-06-25T03:29:12.174Z,14.40
2018-06-25T03:31:40.203Z,14.40
2018-06-25T03:34:08.243Z,14.40
2018-06-25T03:36:36.283Z,14.50
2018-06-25T03:39:06.967Z,14.50
2018-06-25T03:41:35.019Z,14.50
2018-06-25T03:44:03.060Z,14.40
2018-06-25T03:46:31.098Z,14.40
2018-06-25T03:48:59.133Z,14.40
2018-06-25T03:51:27.166Z,14.40
2018-06-25T03:53:55.184Z,14.40
2018-06-25T03:56:24.026Z,14.40
2018-06-25T03:58:51.403Z,14.40
2018-06-25T04:01:19.431Z,14.40
2018-06-25T04:03:47.491Z,14.40
2018-06-25T04:06:15.515Z,14.40
2018-06-25T04:08:43.130Z,14.50
2018-06-25T04:11:11.186Z,14.40
2018-06-25T04:13:39.210Z,14.40
2018-06-25T04:16:06.890Z,14.40
2018-06-25T04:18:34.919Z,14.50
2018-06-25T04:21:02.974Z,14.50
2018-06-25T04:23:31.006Z,14.50
2018-06-25T04:25:59.050Z,14.60
2018-06-25T04:28:27.228Z,14.70
2018-06-25T04:30:55.270Z,14.70
2018-06-25T04:33:23.310Z,14.70
2018-06-25T04:35:51.355Z,14.70
2018-06-25T04:38:19.395Z,14.60
2018-06-25T04:40:47.418Z,14.60
2018-06-25T04:43:15.467Z,14.80
2018-06-25T04:45:43.503Z,14.90
2018-06-25T04:48:11.528Z,14.90
2018-06-25T04:53:07.410Z,14.90
2018-06-25T04:55:35.434Z,15.00
2018-06-25T04:58:03.499Z,15.00
2018-06-25T05:00:32.310Z,15.10
2018-06-25T05:05:28.183Z,15.20
2018-06-25T05:07:56.211Z,15.30
2018-06-25T05:10:24.334Z,15.30
2018-06-25T05:15:20.239Z,15.40
2018-06-25T05:17:47.626Z,15.50
2018-06-25T05:20:14.989Z,15.50
2018-06-25T05:22:42.374Z,15.60
2018-06-25T05:25:09.738Z,15.60
2018-06-25T05:27:37.799Z,15.60
2018-06-25T05:30:06.012Z,15.60
2018-06-25T05:32:34.043Z,15.50
2018-06-25T05:35:02.086Z,15.50
2018-06-25T05:37:30.183Z,15.50
2018-06-25T05:39:58.202Z,15.50
2018-06-25T05:42:26.218Z,15.50
2018-06-25T05:44:53.573Z,15.40
2018-06-25T05:47:22.046Z,15.50
2018-06-25T05:49:50.197Z,15.50
2018-06-25T05:52:18.243Z,15.50
2018-06-25T05:54:46.303Z,15.60
2018-06-25T05:57:14.327Z,15.60
2018-06-25T06:02:09.937Z,15.80
2018-06-25T06:09:33.634Z,15.80
2018-06-25T06:12:01.650Z,15.80
2018-06-25T06:14:29.682Z,15.80
2018-06-25T06:16:57.763Z,15.90
2018-06-25T06:19:25.105Z,15.80
2018-06-25T06:21:53.290Z,15.90
2018-06-25T06:24:21.835Z,15.80
2018-06-25T06:26:49.811Z,15.60
2018-06-25T06:29:17.850Z,15.60
2018-06-25T06:31:45.882Z,15.50
2018-06-25T06:34:13.921Z,15.50
2018-06-25T06:36:41.947Z,15.60
2018-06-25T06:39:12.962Z,15.70
2018-06-25T06:41:41.218Z,15.70
2018-06-25T06:44:09.251Z,15.70
2018-06-25T06:46:37.419Z,15.60
2018-06-25T06:49:05.594Z,15.60
2018-06-25T06:51:33.946Z,15.60
2018-06-25T06:54:02.444Z,15.60
2018-06-25T06:56:30.462Z,15.50
2018-06-25T06:58:58.497Z,15.40
2018-06-25T07:01:26.611Z,15.40
2018-06-25T07:03:54.979Z,15.30
2018-06-25T07:06:23.011Z,15.40
2018-06-25T07:08:51.066Z,15.50
2018-06-25T07:11:19.086Z,15.60
2018-06-25T07:13:47.132Z,15.50
2018-06-25T07:18:43.106Z,15.30
2018-06-25T07:21:11.135Z,15.30
2018-06-25T07:23:39.521Z,15.40
2018-06-25T07:26:07.571Z,15.40
2018-06-25T07:28:35.607Z,15.30
2018-06-25T07:31:03.652Z,15.30
2018-06-25T07:33:31.682Z,15.30
2018-06-25T07:35:59.706Z,15.30
2018-06-25T07:38:27.722Z,15.30
2018-06-25T07:40:55.747Z,15.30
2018-06-25T07:43:23.774Z,15.40
2018-06-25T07:45:51.141Z,15.60
2018-06-25T07:48:19.170Z,15.80
2018-06-25T07:50:46.550Z,15.80
2018-06-25T07:55:42.399Z,16.00
2018-06-25T07:58:10.442Z,15.80
2018-06-25T08:00:38.478Z,15.80
2018-06-25T08:03:06.563Z,15.90
2018-06-25T08:05:33.950Z,16.00
2018-06-25T08:08:01.974Z,16.10
2018-06-25T08:10:30.035Z,16.40
2018-06-25T08:12:58.070Z,16.80
2018-06-25T08:15:26.123Z,16.80
2018-06-25T08:17:54.150Z,17.10
2018-06-25T08:20:22.198Z,17.00
2018-06-25T08:22:50.259Z,17.10
2018-06-25T08:27:46.103Z,17.10
2018-06-25T08:30:14.227Z,17.00
2018-06-25T08:32:42.204Z,17.00
2018-06-25T08:35:10.226Z,16.90
2018-06-25T08:37:38.258Z,16.80
2018-06-25T08:40:06.356Z,16.90
2018-06-25T08:42:34.338Z,16.80
2018-06-25T08:45:02.380Z,16.90
2018-06-25T08:47:30.448Z,17.10
2018-06-25T08:49:58.479Z,17.40
2018-06-25T08:52:26.494Z,17.50
2018-06-25T08:54:54.556Z,17.60
2018-06-25T08:57:22.538Z,18.00
2018-06-25T08:59:49.919Z,18.50
2018-06-25T09:02:17.939Z,18.80
2018-06-25T09:04:45.313Z,19.00
2018-06-25T09:07:12.678Z,18.70
2018-06-25T09:09:40.750Z,18.90
2018-06-25T09:12:08.073Z,18.90
2018-06-25T09:14:36.090Z,18.60
2018-06-25T09:17:03.473Z,18.70
2018-06-25T09:19:31.493Z,18.60
2018-06-25T09:21:58.869Z,18.70
2018-06-25T09:24:26.229Z,18.90
2018-06-25T09:26:54.266Z,18.80
2018-06-25T09:29:21.621Z,18.80
2018-06-25T09:31:48.998Z,18.40
2018-06-25T09:34:22.426Z,18.30
2018-06-25T09:36:50.452Z,18.20
2018-06-25T09:39:18.475Z,18.20
2018-06-25T09:41:46.712Z,18.00
2018-06-25T09:44:14.562Z,18.10
2018-06-25T09:46:42.603Z,18.00
2018-06-25T09:49:10.625Z,18.10
2018-06-25T09:51:38.655Z,18.20
2018-06-25T09:54:06.018Z,18.20
2018-06-25T09:56:34.055Z,18.50
2018-06-25T09:59:01.454Z,18.50
2018-06-25T10:01:28.830Z,18.60
2018-06-25T10:03:56.850Z,18.80
2018-06-25T10:06:24.238Z,19.10
2018-06-25T10:08:52.264Z,19.10
2018-06-25T10:13:47.438Z,19.00
2018-06-25T10:16:15.464Z,18.80
2018-06-25T10:18:42.830Z,18.50
2018-06-25T10:23:38.030Z,19.00
2018-06-25T10:28:33.265Z,18.70
2018-06-25T10:31:00.607Z,19.00
2018-06-25T10:33:27.986Z,19.30
2018-06-25T10:35:56.009Z,19.40
2018-06-25T10:38:24.034Z,19.50
2018-06-25T10:40:52.138Z,19.50
2018-06-25T10:43:19.518Z,19.70
2018-06-25T10:48:14.742Z,20.50
2018-06-25T10:50:42.754Z,20.70
2018-06-25T10:55:38.599Z,20.40
2018-06-25T10:58:06.033Z,20.20
2018-06-25T11:00:33.353Z,19.90
2018-06-25T11:05:28.527Z,20.00
2018-06-25T11:07:55.902Z,20.00
2018-06-25T11:10:23.922Z,20.10
2018-06-25T11:12:52.010Z,20.20
2018-06-25T11:15:19.346Z,20.40
2018-06-25T11:17:46.713Z,20.30
2018-06-25T11:20:14.099Z,20.20
2018-06-25T11:22:41.466Z,20.50
2018-06-25T11:25:09.478Z,21.20
2018-06-25T11:27:37.582Z,21.80
2018-06-25T11:30:05.547Z,22.30
2018-06-25T11:32:33.602Z,22.60
2018-06-25T11:35:01.639Z,23.20
2018-06-25T11:37:29.010Z,23.20
2018-06-25T11:39:57.423Z,22.50
2018-06-25T11:42:24.806Z,21.40
2018-06-25T11:44:52.848Z,20.80
2018-06-25T11:47:20.891Z,20.70
2018-06-25T11:52:16.072Z,21.00
2018-06-25T11:54:44.115Z,21.10
2018-06-25T11:57:11.482Z,20.90
2018-06-25T12:02:06.130Z,21.10
2018-06-25T12:04:33.443Z,21.80
2018-06-25T12:07:00.810Z,22.10
2018-06-25T12:09:28.190Z,21.80
2018-06-25T12:11:55.551Z,22.10
2018-06-25T12:14:22.962Z,21.70
2018-06-25T12:16:51.006Z,22.10
2018-06-25T12:19:18.390Z,22.50
2018-06-25T12:21:45.794Z,22.00
2018-06-25T12:24:13.170Z,21.80
2018-06-25T12:26:40.545Z,21.80
2018-06-25T12:29:07.925Z,21.70
2018-06-25T12:31:35.970Z,21.70
2018-06-25T12:34:03.385Z,22.40
2018-06-25T12:36:31.419Z,22.80
2018-06-25T12:38:58.810Z,23.20
2018-06-25T12:41:26.233Z,23.60
2018-06-25T12:43:53.591Z,23.80
2018-06-25T12:46:20.987Z,23.30
2018-06-25T12:48:48.378Z,23.10
2018-06-25T12:51:16.021Z,22.80
2018-06-25T12:53:43.386Z,22.40
2018-06-25T12:56:10.750Z,22.30
2018-06-25T12:58:38.226Z,22.50
2018-06-25T13:03:32.810Z,22.40
2018-06-25T13:08:27.362Z,23.90
2018-06-25T13:13:23.139Z,23.90
2018-06-25T13:15:50.521Z,24.20
2018-06-25T13:18:17.897Z,23.80
2018-06-25T13:20:46.027Z,24.20
2018-06-25T13:23:13.283Z,24.70
2018-06-25T13:25:40.780Z,24.30
2018-06-25T13:28:08.030Z,23.80
2018-06-25T13:30:35.401Z,23.50
2018-06-25T13:33:02.782Z,23.50
2018-06-25T13:35:30.826Z,23.30
2018-06-25T13:37:58.849Z,22.80
2018-06-25T13:42:53.378Z,22.20
2018-06-25T13:45:20.760Z,22.00
2018-06-25T13:47:48.138Z,21.90
2018-06-25T13:50:16.162Z,22.30
2018-06-25T13:52:43.521Z,23.30
2018-06-25T13:55:11.559Z,23.90
2018-06-25T13:57:38.939Z,24.50
2018-06-25T14:00:06.734Z,24.90
2018-06-25T14:02:34.126Z,25.00
2018-06-25T14:05:01.526Z,25.00
2018-06-25T14:07:28.890Z,25.10
2018-06-25T14:09:56.360Z,25.40
2018-06-25T14:12:24.310Z,24.60
2018-06-25T14:14:51.783Z,24.40
2018-06-25T14:19:47.000Z,24.40
2018-06-25T14:22:14.392Z,23.60
2018-06-25T14:24:47.298Z,23.40
2018-06-25T14:27:14.686Z,23.20
2018-06-25T14:29:42.094Z,23.20
2018-06-25T14:32:10.126Z,23.30
2018-06-25T14:34:37.980Z,23.40
2018-06-25T14:39:32.498Z,22.20
2018-06-25T14:41:59.874Z,22.30
2018-06-25T14:44:27.238Z,23.00
2018-06-25T14:46:54.628Z,23.70
2018-06-25T14:49:22.054Z,23.40
2018-06-25T14:51:49.430Z,23.20
2018-06-25T14:54:17.459Z,23.60
2018-06-25T14:56:44.847Z,23.80
2018-06-25T15:01:39.402Z,23.70
2018-06-25T15:04:07.435Z,23.20
2018-06-25T15:06:34.804Z,23.20
2018-06-25T15:09:02.215Z,23.80
2018-06-25T15:11:30.255Z,23.90
2018-06-25T15:13:57.635Z,24.40
2018-06-25T15:16:25.666Z,24.90
2018-06-25T15:18:53.719Z,24.90
2018-06-25T15:21:21.775Z,24.90
2018-06-25T15:23:49.145Z,25.10
2018-06-25T15:26:17.230Z,25.20
2018-06-25T15:28:44.609Z,25.20
2018-06-25T15:31:11.986Z,24.90
2018-06-25T15:33:39.357Z,24.70
2018-06-25T15:36:07.391Z,24.40
2018-06-25T15:41:02.590Z,25.20
2018-06-25T15:43:29.977Z,25.40
2018-06-25T15:45:57.998Z,25.70
2018-06-25T15:48:25.397Z,26.00
2018-06-25T15:50:52.778Z,25.80
2018-06-25T15:55:47.290Z,26.70
2018-06-25T15:58:14.661Z,25.80
2018-06-25T16:00:42.042Z,26.20
2018-06-25T16:03:10.095Z,25.80
2018-06-25T16:08:04.625Z,24.60
2018-06-25T16:10:32.003Z,24.00
2018-06-25T16:15:27.188Z,24.20
2018-06-25T16:17:54.587Z,24.10
2018-06-25T16:20:22.631Z,24.50
2018-06-25T16:22:50.650Z,24.30
2018-06-25T16:25:18.039Z,24.40
2018-06-25T16:27:46.063Z,24.40
2018-06-25T16:30:13.963Z,24.60
2018-06-25T16:32:41.342Z,24.90
2018-06-25T16:35:08.754Z,25.00
2018-06-25T16:37:36.123Z,24.60
2018-06-25T16:40:03.514Z,24.40
2018-06-25T16:42:30.910Z,24.70
2018-06-25T16:44:58.290Z,24.40
2018-06-25T16:47:25.700Z,24.40
2018-06-25T16:49:53.082Z,24.60
2018-06-25T16:52:20.446Z,24.70
2018-06-25T16:54:47.818Z,24.60
2018-06-25T16:57:15.190Z,24.50
2018-06-25T16:59:42.621Z,24.10
2018-06-25T17:02:09.962Z,24.20
2018-06-25T17:04:37.355Z,24.00
2018-06-25T17:07:04.715Z,23.70
2018-06-25T17:09:32.082Z,23.80
2018-06-25T17:11:59.466Z,23.40
2018-06-25T17:19:21.861Z,22.00
2018-06-25T17:21:49.954Z,22.30
2018-06-25T17:26:44.530Z,23.30
2018-06-25T17:29:11.914Z,23.70
2018-06-25T17:31:39.279Z,23.80
2018-06-25T17:34:07.302Z,23.80
2018-06-25T17:36:34.674Z,23.70
2018-06-25T17:39:02.090Z,23.50
2018-06-25T17:41:29.514Z,22.90
2018-06-25T17:43:57.706Z,22.40
2018-06-25T17:46:25.731Z,22.20
2018-06-25T17:48:53.101Z,21.90
2018-06-25T17:51:20.483Z,21.70
2018-06-25T17:56:15.650Z,21.50
2018-06-25T17:58:43.022Z,21.50
2018-06-25T18:03:38.858Z,21.50
2018-06-25T18:06:06.911Z,21.60
2018-06-25T18:08:34.939Z,21.70
2018-06-25T18:11:02.988Z,21.50
2018-06-25T18:15:58.231Z,21.20
2018-06-25T18:18:26.240Z,21.20
2018-06-25T18:20:53.616Z,21.30
2018-06-25T18:23:21.638Z,21.20
2018-06-25T18:25:49.021Z,21.10
2018-06-25T18:28:16.473Z,21.20
2018-06-25T18:35:38.786Z,21.20
2018-06-25T18:38:06.855Z,21.20
2018-06-25T18:40:34.872Z,21.30
2018-06-25T18:43:02.898Z,21.40
2018-06-25T18:45:30.922Z,21.30
2018-06-25T18:47:58.966Z,21.20
2018-06-25T18:50:26.986Z,21.10
2018-06-25T18:52:55.027Z,20.90
2018-06-25T18:57:50.893Z,20.70
2018-06-25T19:00:18.936Z,20.60
2018-06-25T19:02:47.114Z,20.50
2018-06-25T19:05:15.156Z,20.50
2018-06-25T19:07:43.171Z,20.40
2018-06-25T19:10:11.215Z,20.40
2018-06-25T19:12:39.256Z,20.30
2018-06-25T19:15:07.315Z,20.20
2018-06-25T19:17:35.375Z,20.10
2018-06-25T19:22:31.914Z,19.90
2018-06-25T19:27:27.875Z,19.70
2018-06-25T19:29:56.004Z,19.60
2018-06-25T19:32:24.046Z,19.50
2018-06-25T19:34:52.083Z,19.50
2018-06-25T19:39:47.954Z,19.30
2018-06-25T19:42:16.070Z,19.20
2018-06-25T19:44:44.198Z,19.20
2018-06-25T19:49:40.119Z,19.10
2018-06-25T19:52:08.185Z,19.00
2018-06-25T19:57:04.094Z,19.00
2018-06-25T19:59:32.146Z,18.90
2018-06-25T20:02:00.196Z,18.80
2018-06-25T20:04:28.259Z,18.80
2018-06-25T20:06:56.303Z,18.80
2018-06-25T20:14:20.082Z,18.80
2018-06-25T20:16:48.120Z,18.70
2018-06-25T20:21:43.995Z,18.60
2018-06-25T20:24:12.066Z,18.60
2018-06-25T20:26:40.099Z,18.50
2018-06-25T20:29:08.178Z,18.50
2018-06-25T20:31:36.170Z,18.40
2018-06-25T20:34:04.225Z,18.30
2018-06-25T20:36:32.256Z,18.30
2018-06-25T20:39:00.356Z,18.30
2018-06-25T20:41:28.371Z,18.20
2018-06-25T20:43:56.439Z,18.20
2018-06-25T20:46:24.458Z,18.20
2018-06-25T20:48:52.484Z,18.10
2018-06-25T20:51:20.516Z,18.10
2018-06-25T20:53:48.541Z,18.10
2018-06-25T20:58:44.449Z,18.00
2018-06-25T21:03:40.301Z,17.90
2018-06-25T21:06:08.412Z,17.90
2018-06-25T21:08:36.464Z,17.90
2018-06-25T21:11:04.516Z,17.90
2018-06-25T21:13:32.580Z,17.80
2018-06-25T21:16:00.624Z,17.70
2018-06-25T21:18:28.678Z,17.70
2018-06-25T21:20:56.707Z,17.60
2018-06-25T21:23:24.847Z,17.50
2018-06-25T21:25:53.014Z,17.40
2018-06-25T21:28:21.205Z,17.40
2018-06-25T21:30:49.251Z,17.30
2018-06-25T21:33:17.370Z,17.20
2018-06-25T21:35:45.428Z,17.20
2018-06-25T21:38:13.558Z,17.10
2018-06-25T21:40:41.603Z,17.00
2018-06-25T21:43:09.649Z,17.00
2018-06-25T21:45:37.699Z,17.00
2018-06-25T21:48:05.766Z,16.90
2018-06-25T21:50:33.828Z,16.70
2018-06-25T21:53:01.850Z,16.50
2018-06-25T21:55:29.916Z,16.40
2018-06-25T21:57:57.970Z,16.40
2018-06-25T22:00:36.139Z,16.30
2018-06-25T22:03:04.208Z,16.20
2018-06-25T22:05:32.231Z,16.20
2018-06-25T22:08:00.290Z,16.10
2018-06-25T22:10:28.399Z,16.20
2018-06-25T22:15:24.372Z,16.10
2018-06-25T22:17:52.430Z,16.20
2018-06-25T22:20:20.503Z,16.20
2018-06-25T22:22:48.615Z,16.20
2018-06-25T22:27:44.531Z,16.20
2018-06-25T22:30:12.578Z,16.20
2018-06-25T22:32:40.634Z,16.20
2018-06-25T22:35:08.683Z,16.20
2018-06-25T22:37:36.722Z,16.20
2018-06-25T22:40:04.767Z,16.20
2018-06-25T22:42:32.826Z,15.90
2018-06-25T22:45:00.865Z,15.90
2018-06-25T22:47:28.931Z,15.80
2018-06-25T22:49:56.959Z,15.70
2018-06-25T22:52:25.011Z,15.70
2018-06-25T22:54:53.080Z,15.60
2018-06-25T22:57:21.099Z,15.50
2018-06-25T22:59:49.154Z,15.50
2018-06-25T23:02:17.194Z,15.50
2018-06-25T23:04:45.249Z,15.50
2018-06-25T23:07:13.315Z,15.50
2018-06-25T23:12:09.508Z,15.50
2018-06-25T23:14:37.534Z,15.50
2018-06-25T23:17:05.822Z,15.40
2018-06-25T23:19:33.846Z,15.30
2018-06-25T23:22:01.883Z,15.30
2018-06-25T23:24:29.947Z,15.40
2018-06-25T23:26:58.011Z,15.30
2018-06-25T23:29:26.059Z,15.20
2018-06-25T23:31:54.190Z,15.20
2018-06-25T23:36:50.046Z,15.20
2018-06-25T23:39:18.071Z,15.20
2018-06-25T23:41:46.154Z,15.20
2018-06-25T23:44:14.222Z,15.10
2018-06-25T23:46:42.286Z,15.10
2018-06-25T23:49:10.318Z,15.10
2018-06-25T23:51:38.354Z,15.20
2018-06-25T23:54:06.426Z,15.30
2018-06-25T23:56:34.692Z,15.30
2018-06-25T23:59:02.732Z,15.50
